Tiempo atmosférico en la estación meteorológica de Riaño, León (1090 m.)



Fecha
DESCASC
Temp. máxima en grados centígrados (hora)
DESCASC
Temp. mínima en grados centígrados (hora)
DESCASC
Temp. media en grados centígrados
DESCASC
Racha de viento máxima en m/sg (hora)
DESCASC
Velocidad máxima media en intervalos de 10 minutos(hora)
DESCASC
Precipitaciones diarias en mm
DESCASC
Precipitaciones de 00:00 a 06:00 en mm
DESCASC
Precipitaciones de 06:00 a 12:00 en mm
DESCASC
Precipitaciones de 12:00 a 18:00 en mm
DESCASC
Precipitaciones de 18:00 a 24:00 en mm
DESCASC
26-11-2020 12.2 (15:40) 5.5 (00:00) 8.8 10 (13:30) 5.56 (08:10) 1 0.8 0.2 0 0
25-11-2020 6.8 (01:20) 4.3 (19:30) 5.6 7.78 (10:40) 5 (12:00) 2.4 0 0 2 0.4
24-11-2020 12.1 (14:30) -1.2 (08:10) 5.5 7.22 (16:50) 5.83 (16:50) 0 0 0 0 0
23-11-2020 11.8 (16:10) -0.2 (04:30) 5.8 1.94 (09:30) 1.11 (09:30) 0 0 0 0 0
22-11-2020 15.3 (15:40) -1.7 (-00:0) 6.8 4.72 (17:10) 2.22 (17:20) 0 0 0 0 0
21-11-2020 16.3 (15:20) -0.8 (-00:0) 7.7 1.39 (17:40) 0.83 (12:30) 0 0 0 0 0
20-11-2020 13.6 (15:50) 1.2 (00:00) 7.4 5.83 (00:10) 3.33 (00:40) 0 0 0 0 0
19-11-2020 14.9 (14:50) 3.9 (00:00) 9.4 11.39 (15:30) 8.61 (15:30) 0 0 0 0 0
18-11-2020 17.7 (15:10) 2.1 (00:00) 9.9 4.17 (15:20) 3.33 (18:40) 0 0 0 0 0
17-11-2020 16 (16:10) 1 (00:00) 8.5 3.06 (17:10) 2.22 (17:10) 0 0 0 0 0
16-11-2020 12 (16:00) 2.7 (00:00) 7.4 5 (03:50) 3.06 (03:50) 0 0 0 0 0
15-11-2020 13.4 (14:20) 8.1 (00:00) 10.8 11.67 (07:00) 6.67 (06:30) 2.6 0.8 1.2 0.6 0
14-11-2020 11.2 (15:40) 3.3 (00:00) 7.2 7.78 (14:30) 4.17 (12:50) 0 0 0 0 0
13-11-2020 15 (15:00) 2.6 (00:00) 8.8 4.72 (14:50) 3.06 (14:50) 0 0 0 0 0
12-11-2020 15.7 (15:40) 4.9 (00:00) 10.3 3.33 (18:00) 2.5 (18:00) 0 0 0 0 0
11-11-2020 10.2 (14:10) 1.5 (00:00) 5.8 8.61 (12:40) 4.44 (13:40) 0.2 0 0 0 0.2
10-11-2020 12.2 (14:50) 4 (00:00) 8.1 5.56 (17:10) 4.17 (16:50) 0 0 0 0 0
09-11-2020 11.2 (14:10) 5.6 (00:00) 8.4 8.33 (01:30) 4.72 (01:40) 0.4 0.4 0 0 0
08-11-2020 9.9 (16:00) 8.2 (00:00) 9 14.17 (08:10) 8.33 (12:10) 17.2 2.6 7.4 4.6 2.6
07-11-2020 11.8 (15:20) 9 (00:00) 10.4 15.28 (01:50) 8.33 (00:50) 14.4 13 1.2 0.2 0
06-11-2020 14.3 (14:20) 9.5 (00:00) 11.9 20.83 (21:50) 11.39 (21:50) 17.4 1.8 0.6 0 15
05-11-2020 13.2 (13:10) 3.6 (00:00) 8.4 12.78 (10:20) 7.5 (10:20) 0.2 0 0 0 0.2
04-11-2020 7.7 (15:10) 1 (00:00) 4.3 13.06 (19:00) 8.61 (19:00) 0 0 0 0 0
03-11-2020 8.4 (13:00) 2.4 (00:00) 5.4 11.67 (14:20) 8.61 (11:20) 0 0 0 0 0
02-11-2020 17 (14:10) 7.8 (00:00) 12.4 9.72 (20:50) 6.11 (23:10) 4.8 0 0 0.2 4.6
01-11-2020 15.7 (14:50) 10.8 (00:00) 13.3 7.78 (18:30) 5.83 (18:30) 0 0 0 0 0
31-10-2020 16.5 (15:40) 4.6 (00:00) 10.5 6.67 (16:00) 3.61 (17:30) 0 0 0 0 0
30-10-2020 16.7 (16:00) 0.7 (00:00) 8.7 5 (15:30) 3.33 (15:30) 0 0 0 0 0
29-10-2020 16.6 (16:20) 2.1 (00:00) 9.4 3.89 (16:50) 2.78 (18:30) 0 0 0 0 0
28-10-2020 14.6 (15:40) 3.9 (00:00) 9.3 6.39 (14:40) 3.61 (14:40) 0.2 0.2 0 0 0

Gráficas

Temp. máximas Temp. mínimas Temp. medias Precipitaciones Rachas de viento máximas Velocidades máximas media en intervalos de 10 minutos

Datos horarios

Fecha y hora oficial Temperatura (ºC) Velocidad del viento (km/h) Dirección del viento Racha (km/h) Dirección de racha Precipitación (mm) Presión (hPa) Tendencia (hPa) Humedad (%)
2020-11-26 23:00:00 8.7 5 Sudoeste 20 Sur 0 -- -- 80
2020-11-26 22:00:00 9 4 Sur 27 Sur 0 -- -- 76
2020-11-26 21:00:00 8.8 6 Sudeste 19 Sudeste 0 -- -- 74
2020-11-26 20:00:00 8.6 0 Calma 11 Este 0 -- -- 76
2020-11-26 19:00:00 8.9 3 Sudeste 12 Sudeste 0 -- -- 74
2020-11-26 18:00:00 9.3 6 Este 19 Sudeste 0 -- -- 75
2020-11-26 17:00:00 10.5 12 Sur 16 Sur 0 -- -- 71
2020-11-26 16:00:00 11.8 4 Este 16 Sudoeste 0 -- -- 63
2020-11-26 15:00:00 11.8 9 Sudoeste 25 Sudoeste 0 -- -- 66
2020-11-26 14:00:00 10.6 15 Sudoeste 36 Sur 0 -- -- 68
2020-11-26 13:00:00 10.5 6 Sur 16 Sudoeste 0 -- -- 73
2020-11-26 12:00:00 8.3 0 Calma 10 Este 0 -- -- 80
2020-11-26 11:00:00 7.7 10 Este 19 Este 0 -- -- 82
2020-11-26 10:00:00 7.3 6 Sur 17 Sur 0 -- -- 84
2020-11-26 09:00:00 6.9 6 Sudeste 35 Sudeste 0 -- -- 85
2020-11-26 08:00:00 7 16 Sudeste 28 Sudeste 0 -- -- 87
2020-11-26 07:00:00 6.6 0 Calma 6 Sudeste 0.2 -- -- 91
2020-11-26 06:00:00 7 0 Calma 21 Sudeste 0 -- -- 89
2020-11-26 05:00:00 7.4 10 Sudeste 27 Sudeste 0 -- -- 85
2020-11-26 04:00:00 7 6 Sur 32 Sudeste 0.2 -- -- 87
2020-11-26 03:00:00 6.9 10 Sudeste 24 Sudeste 0.4 -- -- 87
2020-11-26 02:00:00 6.8 14 Sudeste 26 Sudeste 0 -- -- 85
2020-11-26 01:00:00 6 9 Sudeste 15 Sudeste 0.2 -- -- 90
2020-11-26 00:00:00 5.5 0 Calma 9 Este 0 -- -- 94
2020-11-25 23:00:00 5.4 3 Oeste 8 Este 0 -- -- 94
2020-11-25 22:00:00 5.3 0 Calma 6 Norte 0 -- -- 96
2020-11-25 21:00:00 4.7 2 Oeste 6 Sudoeste 0 -- -- 97
2020-11-25 20:00:00 4.4 4 Sudoeste 9 Sudoeste 0 -- -- 96
2020-11-25 19:00:00 4.4 4 Sudoeste 8 Sudoeste 0.4 -- -- 96
2020-11-25 18:00:00 4.6 5 Sudoeste 6 Sudoeste 0.6 -- -- 94
2020-11-25 17:00:00 5 2 Noroeste 9 Sur 0.8 -- -- 94
2020-11-25 16:00:00 5.3 3 Sudoeste 19 Sur 0.4 -- -- 90
2020-11-25 15:00:00 5.4 14 Sur 21 Sudeste 0.2 -- -- 90
2020-11-25 14:00:00 6 9 Sur 27 Sudeste 0 -- -- 91
2020-11-25 13:00:00 5.7 11 Sur 23 Sudeste 0 -- -- 92
2020-11-25 12:00:00 5.4 18 Sur 28 Sur 0 -- -- 93
2020-11-25 11:00:00 5.3 17 Sur 28 Sur 0 -- -- 92
2020-11-25 10:00:00 5.2 10 Sur 22 Sur 0 -- -- 92
2020-11-25 09:00:00 5.2 10 Sudeste 21 Sudeste 0 -- -- 91
2020-11-25 08:00:00 5.1 6 Sudeste 21 Sur 0 -- -- 91
2020-11-25 07:00:00 5.4 13 Sur 22 Sudeste 0 -- -- 90
2020-11-25 06:00:00 5.8 7 Sur 22 Sudeste 0 -- -- 89
2020-11-25 05:00:00 6.2 12 Sudeste 21 Sudeste 0 -- -- 89
2020-11-25 04:00:00 6.4 7 Sudeste 21 Sur 0 -- -- 86
2020-11-25 03:00:00 6.6 6 Sudoeste 16 Sudoeste 0 -- -- 84
2020-11-25 02:00:00 6.7 5 Sudeste 23 Sur 0 -- -- 86
2020-11-25 01:00:00 6.5 6 Sudoeste 17 Sur 0 -- -- 86
2020-11-25 00:00:00 6.3 7 Este 19 Sudeste 0 -- -- 86
2020-11-24 23:00:00 5.9 3 Sur 9 Sudoeste 0 -- -- 85
2020-11-24 22:00:00 5.9 4 Sur 13 Este 0 -- -- 86
2020-11-24 21:00:00 6.2 4 Sudoeste 7 Sudoeste 0 -- -- 83
2020-11-24 20:00:00 6.2 5 Sudeste 24 Sudeste 0 -- -- 84
2020-11-24 19:00:00 6.4 19 Sudeste 25 Sudeste 0 -- -- 83
2020-11-24 18:00:00 7.6 16 Sudeste 26 Sudeste 0 -- -- 75
2020-11-24 17:00:00 9.4 18 Sur 26 Sur 0 -- -- 67
2020-11-24 16:00:00 11.8 3 Sur 13 Oeste 0 -- -- 52
2020-11-24 15:00:00 11.7 8 Sudoeste 18 Sudoeste 0 -- -- 48
2020-11-24 14:00:00 10.2 3 Este 5 Sur 0 -- -- 65
2020-11-24 13:00:00 7.1 4 Norte 6 Nordeste 0 -- -- 73
2020-11-24 12:00:00 4.8 2 Nordeste 3 Sudeste 0 -- -- 80
2020-11-24 11:00:00 2.6 0 Calma 4 Sudeste 0 -- -- 84
2020-11-24 10:00:00 -0.3 2 Sur 4 Sur 0 -- -- 98
2020-11-24 09:00:00 -0.9 0 Calma 3 Sudeste 0 -- -- 96
2020-11-24 08:00:00 -1.1 0 Calma 2 Sur 0 -- -- 97
2020-11-24 07:00:00 -1 0 Calma 3 Sudoeste 0 -- -- 96
2020-11-24 06:00:00 -0.6 0 Calma 2 Este 0 -- -- 96
2020-11-24 05:00:00 -0.4 0 Calma 3 Sudoeste 0 -- -- 95
2020-11-24 04:00:00 0.2 0 Calma 0 Calma 0 -- -- 94
2020-11-24 03:00:00 0.4 0 Calma 2 Sudeste 0 -- -- 93
2020-11-24 02:00:00 0.7 0 Calma 2 Norte 0 -- -- 91
2020-11-24 01:00:00 1.3 0 Calma 2 Sudeste 0 -- -- 89
2020-11-24 00:00:00 1.8 0 Calma 2 Este 0 -- -- 88
2020-11-23 23:00:00 2.8 0 Calma 3 Este 0 -- -- 85
2020-11-23 22:00:00 3.9 0 Calma 6 Sudeste 0 -- -- 80
2020-11-23 21:00:00 4.5 0 Calma 5 Noroeste 0 -- -- 79
2020-11-23 20:00:00 5.3 0 Calma 6 Noroeste 0 -- -- 77
2020-11-23 19:00:00 6.8 2 Norte 5 Nordeste 0 -- -- 73
2020-11-23 18:00:00 8.6 0 Calma 2 Sudeste 0 -- -- 67
2020-11-23 17:00:00 11.2 0 Calma 4 Noroeste 0 -- -- 61
2020-11-23 16:00:00 11.7 0 Calma 3 Norte 0 -- -- 50
2020-11-23 15:00:00 11.1 0 Calma 4 Nordeste 0 -- -- 58
2020-11-23 14:00:00 9.8 2 Nordeste 4 Nordeste 0 -- -- 61
2020-11-23 13:00:00 7.2 2 Nordeste 4 Este 0 -- -- 70
2020-11-23 12:00:00 5.2 3 Nordeste 5 Nordeste 0 -- -- 85
2020-11-23 11:00:00 2.7 0 Calma 5 Este 0 -- -- 92
2020-11-23 10:00:00 0.6 0 Calma 7 Este 0 -- -- 99
2020-11-23 09:00:00 0 0 Calma 5 Sur 0 -- -- 99
2020-11-23 08:00:00 -0.1 2 Este 4 Este 0 -- -- 99
2020-11-23 07:00:00 -0.1 0 Calma 3 Sur 0 -- -- 98
2020-11-23 06:00:00 -0.2 0 Calma 2 Sur 0 -- -- 97
2020-11-23 05:00:00 -0.1 0 Calma 3 Sur 0 -- -- 96
2020-11-23 04:00:00 0 0 Calma 3 Sur 0 -- -- 96
2020-11-23 03:00:00 0.4 0 Calma 2 Norte 0 -- -- 95
2020-11-23 02:00:00 1 0 Calma 2 Norte 0 -- -- 93
2020-11-23 01:00:00 1.7 0 Calma 3 Nordeste 0 -- -- 91
2020-11-23 00:00:00 2.2 2 Nordeste 5 Norte 0 -- -- 90
2020-11-22 23:00:00 3.3 0 Calma 8 Este 0 -- -- 86
2020-11-22 22:00:00 4.3 0 Calma 5 Norte 0 -- -- 85
2020-11-22 21:00:00 5.5 2 Norte 7 Norte 0 -- -- 82
2020-11-22 20:00:00 8 2 Sudeste 9 Sudeste 0 -- -- 73
2020-11-22 19:00:00 9.3 5 Sudeste 15 Sudeste 0 -- -- 70
2020-11-22 18:00:00 11 3 Sudoeste 17 Norte 0 -- -- 60
2020-11-22 17:00:00 13.5 6 Noroeste 16 Norte 0 -- -- 51
2020-11-22 16:00:00 15.2 5 Norte 12 Norte 0 -- -- 47
2020-11-22 15:00:00 14.3 2 Nordeste 5 Norte 0 -- -- 49
2020-11-22 14:00:00 11.7 2 Nordeste 8 Nordeste 0 -- -- 61
2020-11-22 13:00:00 8.8 0 Calma 5 Este 0 -- -- 68
2020-11-22 12:00:00 6.4 2 Nordeste 5 Este 0 -- -- 76
2020-11-22 11:00:00 4.1 0 Calma 4 Este 0 -- -- 83
2020-11-22 10:00:00 1.4 0 Calma 3 Sudeste 0 -- -- 92
2020-11-22 09:00:00 -1.7 0 Calma 2 Norte 0 -- -- 96
2020-11-22 08:00:00 -1.6 0 Calma 2 Norte 0 -- -- 96
2020-11-22 07:00:00 -1.5 0 Calma 2 Nordeste 0 -- -- 96
2020-11-22 06:00:00 -1.2 0 Calma 0 Calma 0 -- -- 95
2020-11-22 05:00:00 -1.1 0 Calma 2 Noroeste 0 -- -- 92
2020-11-22 04:00:00 -0.4 0 Calma 2 Oeste 0 -- -- 92
2020-11-22 03:00:00 -0.1 0 Calma 2 Norte 0 -- -- 91
2020-11-22 02:00:00 0.4 0 Calma 2 Este 0 -- -- 90
2020-11-22 01:00:00 0.9 0 Calma 2 Norte 0 -- -- 89
2020-11-22 00:00:00 1.6 0 Calma 3 Sur 0 -- -- 85
2020-11-21 23:00:00 2.5 0 Calma 4 Norte 0 -- -- 82
2020-11-21 22:00:00 3.2 0 Calma 2 Este 0 -- -- 79
2020-11-21 21:00:00 4.4 0 Calma 2 Norte 0 -- -- 77
2020-11-21 20:00:00 6 0 Calma 3 Sur 0 -- -- 69
2020-11-21 19:00:00 7.7 0 Calma 4 Nordeste 0 -- -- 65
2020-11-21 18:00:00 10 0 Calma 5 Nordeste 0 -- -- 61
2020-11-21 17:00:00 14.1 0 Calma 5 Sudoeste 0 -- -- 50
2020-11-21 16:00:00 15.8 0 Calma 5 Sudoeste 0 -- -- 43
2020-11-21 15:00:00 14.8 0 Calma -- -- 0 -- -- 48
2020-11-21 14:00:00 12.4 0 Calma 5 Nordeste 0 -- -- 60
2020-11-21 13:00:00 10 3 Nordeste 5 Nordeste 0 -- -- 66
2020-11-21 12:00:00 7.3 2 Nordeste 4 Nordeste 0 -- -- 78
2020-11-21 11:00:00 4.9 2 Sudeste 4 Sur 0 -- -- 82
2020-11-21 10:00:00 2.4 0 Calma 4 Sudeste 0 -- -- 94
2020-11-21 09:00:00 -0.6 0 Calma 3 Sudoeste 0 -- -- 97
2020-11-21 08:00:00 -0.8 0 Calma 3 Sur 0 -- -- 97
2020-11-21 07:00:00 -0.7 0 Calma 2 Sur 0 -- -- 95
2020-11-21 06:00:00 -0.4 0 Calma 2 Noroeste 0 -- -- 94
2020-11-21 05:00:00 -0.1 0 Calma 2 Sur 0 -- -- 93
2020-11-21 04:00:00 0.2 0 Calma 3 Sur 0 -- -- 93
2020-11-21 03:00:00 0.6 0 Calma 3 Noroeste 0 -- -- 92
2020-11-21 02:00:00 1 0 Calma 3 Sur 0 -- -- 90
2020-11-21 01:00:00 1.4 0 Calma 4 Sur 0 -- -- 88
2020-11-21 00:00:00 1.7 0 Calma 4 Noroeste 0 -- -- 87
2020-11-20 23:00:00 2.4 0 Calma 3 Norte 0 -- -- 84
2020-11-20 22:00:00 3.4 0 Calma 9 Noroeste 0 -- -- 81
2020-11-20 21:00:00 4 0 Calma 5 Oeste 0 -- -- 77
2020-11-20 20:00:00 4.7 0 Calma 4 Noroeste 0 -- -- 76
2020-11-20 19:00:00 6.3 0 Calma 4 Noroeste 0 -- -- 69
2020-11-20 18:00:00 8.7 3 Oeste 14 Norte 0 -- -- 59
2020-11-20 17:00:00 11.7 5 Noroeste 19 Norte 0 -- -- 46
2020-11-20 16:00:00 13.6 0 Calma 4 Nordeste 0 -- -- 40
2020-11-20 15:00:00 13 3 Nordeste 5 Nordeste 0 -- -- 44
2020-11-20 14:00:00 11.6 0 Calma 6 Nordeste 0 -- -- 53
2020-11-20 13:00:00 9.2 0 Calma 6 Nordeste 0 -- -- 63
2020-11-20 12:00:00 6.7 4 Nordeste 8 Norte 0 -- -- 78
2020-11-20 11:00:00 4.7 3 Nordeste 7 Norte 0 -- -- 85
2020-11-20 10:00:00 2.6 3 Este 9 Este 0 -- -- 95
2020-11-20 09:00:00 1.4 4 Este 12 Este 0 -- -- 99
2020-11-20 08:00:00 1.5 6 Este 10 Este 0 -- -- 97
2020-11-20 07:00:00 1.7 7 Este 10 Este 0 -- -- 97
2020-11-20 06:00:00 1.9 5 Este 10 Este 0 -- -- 96
2020-11-20 05:00:00 2.3 6 Este 10 Este 0 -- -- 97
2020-11-20 04:00:00 2.5 5 Este 10 Este 0 -- -- 96
2020-11-20 03:00:00 2.8 5 Este 13 Este 0 -- -- 96
2020-11-20 02:00:00 3.9 9 Este 17 Este 0 -- -- 94
2020-11-20 01:00:00 4.7 11 Este 21 Este 0 -- -- 93
2020-11-20 00:00:00 5 6 Este 16 Este 0 -- -- 93
2020-11-19 23:00:00 5.4 6 Sudeste 16 Este 0 -- -- 91
2020-11-19 22:00:00 6.5 10 Norte 26 Nordeste 0 -- -- 89
2020-11-19 21:00:00 7.3 7 Oeste 23 Nordeste 0 -- -- 87
2020-11-19 20:00:00 7 4 Sur 13 Sur 0 -- -- 91
2020-11-19 19:00:00 7.5 4 Sudoeste 13 Sudoeste 0 -- -- 90
2020-11-19 18:00:00 8.7 6 Sur 25 Nordeste 0 -- -- 87
2020-11-19 17:00:00 10.4 13 Noroeste 30 Norte 0 -- -- 82
2020-11-19 16:00:00 12.1 21 Norte 41 Nordeste 0 -- -- 76
2020-11-19 15:00:00 14.9 12 Norte 24 Norte 0 -- -- 66
2020-11-19 14:00:00 14.3 8 Norte 19 Norte 0 -- -- 72
2020-11-19 13:00:00 13.5 13 Norte 20 Norte 0 -- -- 77
2020-11-19 12:00:00 12.4 12 Norte 20 Norte 0 -- -- 82
2020-11-19 11:00:00 11.4 2 Norte 5 Nordeste 0 -- -- 86
2020-11-19 10:00:00 8.9 2 Nordeste 14 Nordeste 0 -- -- 96
2020-11-19 09:00:00 8 6 Nordeste 13 Sur 0 -- -- 100
2020-11-19 08:00:00 4.6 0 Calma 5 Sudoeste 0 -- -- 100
2020-11-19 07:00:00 4 0 Calma 7 Noroeste 0 -- -- 99
2020-11-19 06:00:00 4.4 2 Este 9 Norte 0 -- -- 99
2020-11-19 05:00:00 4.2 3 Norte 7 Noroeste 0 -- -- 99
2020-11-19 04:00:00 4.1 0 Calma 8 Sudoeste 0 -- -- 99
2020-11-19 03:00:00 4 2 Norte 4 Norte 0 -- -- 98
2020-11-19 02:00:00 4.4 0 Calma 5 Noroeste 0 -- -- 97
2020-11-19 01:00:00 4.9 0 Calma 6 Noroeste 0 -- -- 96
2020-11-19 00:00:00 5.6 0 Calma 4 Noroeste 0 -- -- 96
2020-11-18 23:00:00 6.4 2 Oeste 4 Sudoeste 0 -- -- 96
2020-11-18 22:00:00 7.1 0 Calma 5 Noroeste 0 -- -- 94
2020-11-18 21:00:00 8 2 Noroeste 8 Norte 0 -- -- 93
2020-11-18 20:00:00 9.4 3 Noroeste 11 Sudoeste 0 -- -- 88
2020-11-18 19:00:00 11.3 9 Sudoeste 14 Sudoeste 0 -- -- 83
2020-11-18 18:00:00 13 11 Sudoeste 15 Sudoeste 0 -- -- 76
2020-11-18 17:00:00 15.4 6 Sur 15 Sur 0 -- -- 70
2020-11-18 16:00:00 17.2 5 Sur 15 Sur 0 -- -- 64
2020-11-18 15:00:00 17.5 9 Sur 13 Sudoeste 0 -- -- 66
2020-11-18 14:00:00 15.6 6 Sudeste 11 Sur 0 -- -- 70
2020-11-18 13:00:00 12.5 4 Nordeste 5 Nordeste 0 -- -- 77
2020-11-18 12:00:00 10.4 2 Nordeste 5 Este 0 -- -- 83
2020-11-18 11:00:00 8.3 3 Nordeste 5 Nordeste 0 -- -- 89
2020-11-18 10:00:00 6.2 2 Sudeste 4 Sudeste 0 -- -- 95
2020-11-18 09:00:00 3.4 0 Calma 2 Norte 0 -- -- 98
2020-11-18 08:00:00 3.5 0 Calma 3 Sur 0 -- -- 97
2020-11-18 07:00:00 4.1 3 Sudoeste 5 Sudoeste 0 -- -- 94
2020-11-18 06:00:00 3.7 0 Calma 4 Sur 0 -- -- 97
2020-11-18 05:00:00 3.1 2 Sudoeste 6 Noroeste 0 -- -- 97
2020-11-18 04:00:00 2.4 0 Calma 3 Sur 0 -- -- 96
2020-11-18 03:00:00 2.1 0 Calma 3 Noroeste 0 -- -- 96
2020-11-18 02:00:00 2.2 0 Calma 4 Noroeste 0 -- -- 96
2020-11-18 01:00:00 2.7 0 Calma 2 Noroeste 0 -- -- 94
2020-11-18 00:00:00 3.2 0 Calma 4 Sudoeste 0 -- -- 93
2020-11-17 23:00:00 4 0 Calma 3 Sudoeste 0 -- -- 92
2020-11-17 22:00:00 4.6 0 Calma 4 Noroeste 0 -- -- 91
2020-11-17 21:00:00 5.4 2 Oeste 4 Noroeste 0 -- -- 86
2020-11-17 20:00:00 6.4 2 Sur 5 Sur 0 -- -- 82
2020-11-17 19:00:00 8.1 2 Noroeste 5 Oeste 0 -- -- 78
2020-11-17 18:00:00 10.8 2 Noroeste 11 Sudoeste 0 -- -- 71
2020-11-17 17:00:00 14.8 4 Sudoeste 8 Sur 0 -- -- 57
2020-11-17 16:00:00 15.7 6 Sur 10 Sur 0 -- -- 56
2020-11-17 15:00:00 13.7 2 Norte 6 Nordeste 0 -- -- 68
2020-11-17 14:00:00 11.5 3 Nordeste 5 Nordeste 0 -- -- 72
2020-11-17 13:00:00 8.5 3 Nordeste 5 Nordeste 0 -- -- 84
2020-11-17 12:00:00 5.9 3 Nordeste 6 Este 0 -- -- 92
2020-11-17 11:00:00 3 2 Este 5 Este 0 -- -- 100
2020-11-17 10:00:00 1.6 3 Nordeste 6 Nordeste 0 -- -- 100
2020-11-17 09:00:00 1 3 Este 8 Este 0 -- -- 100
2020-11-17 08:00:00 1.4 4 Este 7 Este 0 -- -- 100
2020-11-17 07:00:00 1.5 3 Sudeste 6 Este 0 -- -- 100
2020-11-17 06:00:00 1.5 3 Sur 5 Sur 0 -- -- 100
2020-11-17 05:00:00 1.8 3 Sur 6 Sudeste 0 -- -- 99
2020-11-17 04:00:00 1.8 0 Calma 6 Sur 0 -- -- 99
2020-11-17 03:00:00 1.9 0 Calma 2 Este 0 -- -- 98
2020-11-17 02:00:00 1.8 0 Calma 2 Sudeste 0 -- -- 98
2020-11-17 01:00:00 2 0 Calma 5 Noroeste 0 -- -- 97
2020-11-17 00:00:00 2.7 0 Calma 2 Noroeste 0 -- -- 96
2020-11-16 23:00:00 3.2 0 Calma 2 Nordeste 0 -- -- 96
2020-11-16 22:00:00 4 0 Calma 3 Este 0 -- -- 93
2020-11-16 21:00:00 4.8 0 Calma 4 Norte 0 -- -- 93
2020-11-16 20:00:00 5.8 0 Calma 7 Este 0 -- -- 92
2020-11-16 19:00:00 7.3 0 Calma 3 Norte 0 -- -- 89
2020-11-16 18:00:00 9 0 Calma 5 Sudoeste 0 -- -- 81
2020-11-16 17:00:00 11.7 2 Noroeste 4 Norte 0 -- -- 72
2020-11-16 16:00:00 12 3 Norte 4 Nordeste 0 -- -- 75
2020-11-16 15:00:00 11.8 3 Nordeste 6 Norte 0 -- -- 74
2020-11-16 14:00:00 10.5 4 Norte 6 Nordeste 0 -- -- 79
2020-11-16 13:00:00 8.8 0 Calma 5 Este 0 -- -- 83
2020-11-16 12:00:00 7.1 2 Norte 8 Nordeste 0 -- -- 91
2020-11-16 11:00:00 6.2 3 Norte 8 Norte 0 -- -- 94
2020-11-16 10:00:00 5.2 3 Este 13 Este 0 -- -- 95
2020-11-16 09:00:00 4.9 10 Este 15 Este 0 -- -- 97
2020-11-16 08:00:00 4.8 5 Este 10 Nordeste 0 -- -- 97
2020-11-16 07:00:00 4.9 2 Noroeste 9 Nordeste 0 -- -- 98
2020-11-16 06:00:00 5.2 0 Calma 16 Nordeste 0 -- -- 95
2020-11-16 05:00:00 5.7 3 Sudoeste 10 Norte 0 -- -- 96
2020-11-16 04:00:00 6.5 9 Norte 18 Norte 0 -- -- 97
2020-11-16 03:00:00 6.6 6 Nordeste 11 Nordeste 0 -- -- 96
2020-11-16 02:00:00 7 5 Nordeste 10 Este 0 -- -- 95
2020-11-16 01:00:00 7.2 6 Nordeste 11 Nordeste 0 -- -- 94
2020-11-16 00:00:00 8.1 5 Este 21 Norte 0 -- -- 92
2020-11-15 23:00:00 8.7 3 Sudeste 22 Noroeste 0 -- -- 91
2020-11-15 22:00:00 9.4 11 Norte 30 Norte 0 -- -- 91
2020-11-15 21:00:00 10.2 4 Nordeste 30 Nordeste 0 -- -- 90
2020-11-15 20:00:00 12 10 Norte 23 Noroeste 0 -- -- 87
2020-11-15 19:00:00 12.2 6 Oeste 12 Sudoeste 0 -- -- 89
2020-11-15 18:00:00 12.2 4 Oeste 25 Oeste 0.2 -- -- 90
2020-11-15 17:00:00 12.3 2 Norte 19 Oeste 0.2 -- -- 93
2020-11-15 16:00:00 13 5 Oeste 26 Oeste 0 -- -- 88
2020-11-15 15:00:00 12.9 10 Sudoeste 21 Sudoeste 0.2 -- -- 88
2020-11-15 14:00:00 13.3 2 Noroeste 23 Sudoeste 0 -- -- 88
2020-11-15 13:00:00 12.6 10 Oeste 23 Noroeste 0 -- -- 86
2020-11-15 12:00:00 12 5 Sudoeste 24 Sudoeste 0.4 -- -- 91
2020-11-15 11:00:00 11.5 5 Nordeste 12 Nordeste 0.4 -- -- 94
2020-11-15 10:00:00 11.4 5 Nordeste 15 Sur 0 -- -- 94
2020-11-15 09:00:00 10.9 3 Norte 32 Sur 0.2 -- -- 95
2020-11-15 08:00:00 11 10 Sudoeste 35 Sudoeste 0.2 -- -- 92
2020-11-15 07:00:00 10.7 19 Sur 42 Sudoeste 0 -- -- 94
2020-11-15 06:00:00 10.8 4 Sudoeste 21 Sur 0 -- -- 92
2020-11-15 05:00:00 10.7 3 Sudoeste 22 Oeste 0 -- -- 92
2020-11-15 04:00:00 10.8 13 Sudoeste 41 Sudoeste 0 -- -- 91
2020-11-15 03:00:00 10.7 17 Sudoeste 37 Sudoeste 0.2 -- -- 92
2020-11-15 02:00:00 10.3 10 Sudoeste 27 Sur 0.4 -- -- 95
2020-11-15 01:00:00 10.3 8 Sudoeste 18 Sur 0.2 -- -- 93
2020-11-15 00:00:00 9.6 2 Noroeste 6 Oeste 0 -- -- 95
2020-11-14 23:00:00 9.4 0 Calma 9 Sur 0 -- -- 95
2020-11-14 22:00:00 9.5 4 Sur 13 Sudeste 0 -- -- 94
2020-11-14 21:00:00 9.6 9 Sudeste 19 Sudeste 0 -- -- 92
2020-11-14 20:00:00 9.6 6 Sudeste 13 Sudeste 0 -- -- 92
2020-11-14 19:00:00 9.7 6 Sur 9 Sur 0 -- -- 90
2020-11-14 18:00:00 9.9 5 Sudeste 13 Sudoeste 0 -- -- 86
2020-11-14 17:00:00 10.5 6 Sudoeste 24 Sur 0 -- -- 79
2020-11-14 16:00:00 11.2 4 Sudoeste 25 Sur 0 -- -- 78
2020-11-14 15:00:00 10.8 8 Sudoeste 28 Sur 0 -- -- 83
2020-11-14 14:00:00 10.6 6 Sudoeste 16 Sur 0 -- -- 81
2020-11-14 13:00:00 10.9 13 Sudoeste 26 Sur 0 -- -- 80
2020-11-14 12:00:00 10.5 5 Sur 12 Sudoeste 0 -- -- 84
2020-11-14 11:00:00 9.2 0 Calma 11 Este 0 -- -- 87
2020-11-14 10:00:00 8.3 2 Norte 6 Nordeste 0 -- -- 88
2020-11-14 09:00:00 7.3 2 Nordeste 9 Sudoeste 0 -- -- 91
2020-11-14 08:00:00 6.9 2 Norte 6 Noroeste 0 -- -- 91
2020-11-14 07:00:00 7.2 0 Calma 9 Este 0 -- -- 89
2020-11-14 06:00:00 6.8 2 Este 10 Nordeste 0 -- -- 92
2020-11-14 05:00:00 5.8 0 Calma 5 Noroeste 0 -- -- 95
2020-11-14 04:00:00 5.5 0 Calma 5 Sudoeste 0 -- -- 96
2020-11-14 03:00:00 4.6 0 Calma 5 Sudoeste 0 -- -- 97
2020-11-14 02:00:00 4.1 0 Calma 5 Noroeste 0 -- -- 96
2020-11-14 01:00:00 3.6 0 Calma 4 Sudoeste 0 -- -- 97
2020-11-14 00:00:00 3.4 0 Calma 4 Sudoeste 0 -- -- 95
2020-11-13 23:00:00 3.8 0 Calma 4 Sudoeste 0 -- -- 94
2020-11-13 22:00:00 4.2 0 Calma 3 Este 0 -- -- 92
2020-11-13 21:00:00 5.1 0 Calma 8 Sur 0 -- -- 90
2020-11-13 20:00:00 7 0 Calma 14 Sudoeste 0 -- -- 82
2020-11-13 19:00:00 8.4 10 Sudoeste 15 Sudoeste 0 -- -- 80
2020-11-13 18:00:00 10.4 3 Sudoeste 12 Sur 0 -- -- 69
2020-11-13 17:00:00 13.8 5 Sur 12 Sur 0 -- -- 61
2020-11-13 16:00:00 14.8 3 Sur 15 Sudoeste 0 -- -- 53
2020-11-13 15:00:00 15 8 Sur 17 Sur 0 -- -- 53
2020-11-13 14:00:00 13.8 3 Nordeste 8 Norte 0 -- -- 65
2020-11-13 13:00:00 12.1 4 Nordeste 6 Norte 0 -- -- 71
2020-11-13 12:00:00 9.8 3 Nordeste 8 Nordeste 0 -- -- 75
2020-11-13 11:00:00 7.3 5 Sur 9 Sur 0 -- -- 86
2020-11-13 10:00:00 4.6 5 Nordeste 9 Nordeste 0 -- -- 92
2020-11-13 09:00:00 2.6 0 Calma 4 Sudoeste 0 -- -- 96
2020-11-13 08:00:00 2.9 0 Calma 4 Noroeste 0 -- -- 96
2020-11-13 07:00:00 3.2 3 Noroeste 5 Noroeste 0 -- -- 96
2020-11-13 06:00:00 3.6 0 Calma 4 Noroeste 0 -- -- 96
2020-11-13 05:00:00 3.9 0 Calma 4 Sur 0 -- -- 96
2020-11-13 04:00:00 4.1 0 Calma 5 Sudoeste 0 -- -- 95
2020-11-13 03:00:00 4.1 2 Sudoeste 5 Sudoeste 0 -- -- 95
2020-11-13 02:00:00 4.2 0 Calma 6 Noroeste 0 -- -- 95
2020-11-13 01:00:00 4.4 0 Calma 4 Sur 0 -- -- 95
2020-11-13 00:00:00 4.9 0 Calma 4 Oeste 0 -- -- 94
2020-11-12 23:00:00 5.3 0 Calma 4 Este 0 -- -- 94
2020-11-12 22:00:00 5.7 0 Calma 4 Noroeste 0 -- -- 93
2020-11-12 21:00:00 6.3 0 Calma 6 Sudoeste 0 -- -- 88
2020-11-12 20:00:00 7 0 Calma 5 Sudoeste 0 -- -- 85
2020-11-12 19:00:00 8.9 0 Calma 11 Sudoeste 0 -- -- 77
2020-11-12 18:00:00 11.5 9 Sudoeste 12 Sudoeste 0 -- -- 67
2020-11-12 17:00:00 14.4 6 Sudoeste 12 Sur 0 -- -- 60
2020-11-12 16:00:00 15.4 3 Nordeste 9 Sur 0 -- -- 59
2020-11-12 15:00:00 15.2 3 Nordeste 8 Norte 0 -- -- 56
2020-11-12 14:00:00 14.3 3 Nordeste 6 Nordeste 0 -- -- 63
2020-11-12 13:00:00 13.3 3 Nordeste 6 Nordeste 0 -- -- 73
2020-11-12 12:00:00 11.6 4 Nordeste 9 Sudoeste 0 -- -- 80
2020-11-12 11:00:00 8.5 4 Sudoeste 7 Sudoeste 0 -- -- 89
2020-11-12 10:00:00 7.4 5 Sur 9 Sudoeste 0 -- -- 94
2020-11-12 09:00:00 6.7 4 Sur 6 Sudoeste 0 -- -- 96
2020-11-12 08:00:00 6.4 0 Calma 6 Sudoeste 0 -- -- 96
2020-11-12 07:00:00 6.4 4 Sudoeste 6 Sur 0 -- -- 96
2020-11-12 06:00:00 6.7 4 Sudoeste 9 Sudoeste 0 -- -- 95
2020-11-12 05:00:00 6.7 5 Sudoeste 10 Sudoeste 0 -- -- 95
2020-11-12 04:00:00 6.7 6 Sudoeste 10 Sudoeste 0 -- -- 95
2020-11-12 03:00:00 6.8 4 Sudoeste 6 Sudoeste 0 -- -- 94
2020-11-12 02:00:00 6.8 3 Sudoeste 4 Sudoeste 0 -- -- 95
2020-11-12 01:00:00 6.7 0 Calma 5 Sur 0 -- -- 95
2020-11-12 00:00:00 6.6 2 Noroeste 4 Noroeste 0.2 -- -- 94
2020-11-11 23:00:00 6.8 0 Calma 5 Sudoeste 0 -- -- 92
2020-11-11 22:00:00 6.8 0 Calma 5 Sur 0 -- -- 91
2020-11-11 21:00:00 6.9 5 Sudoeste 9 Sudoeste 0 -- -- 87
2020-11-11 20:00:00 7 4 Sur 10 Sudeste 0 -- -- 87
2020-11-11 19:00:00 7 9 Sudoeste 13 Sudoeste 0 -- -- 86
2020-11-11 18:00:00 7.6 3 Sudoeste 10 Sudoeste 0 -- -- 84
2020-11-11 17:00:00 8.2 7 Sudoeste 14 Oeste 0 -- -- 78
2020-11-11 16:00:00 8.6 6 Sudoeste 22 Sudoeste 0 -- -- 76
2020-11-11 15:00:00 9.3 6 Sudoeste 21 Oeste 0 -- -- 72
2020-11-11 14:00:00 9.9 11 Sudoeste 28 Sudoeste 0 -- -- 71
2020-11-11 13:00:00 10 14 Sudoeste 31 Sudoeste 0 -- -- 74
2020-11-11 12:00:00 9.1 12 Sudoeste 30 Sudoeste 0 -- -- 81
2020-11-11 11:00:00 5.7 0 Calma 4 Este 0 -- -- 99
2020-11-11 10:00:00 3.1 0 Calma 9 Este 0 -- -- 100
2020-11-11 09:00:00 2 3 Sur 8 Sudoeste 0 -- -- 100
2020-11-11 08:00:00 1.7 2 Oeste 7 Sur 0 -- -- 100
2020-11-11 07:00:00 1.6 4 Sudoeste 9 Sudoeste 0 -- -- 99
2020-11-11 06:00:00 2.3 4 Sudoeste 7 Sudoeste 0 -- -- 99
2020-11-11 05:00:00 2.8 2 Este 9 Este 0 -- -- 99
2020-11-11 04:00:00 3 0 Calma 8 Sudeste 0 -- -- 99
2020-11-11 03:00:00 3.3 5 Este 10 Este 0 -- -- 98
2020-11-11 02:00:00 3.6 5 Este 9 Este 0 -- -- 98
2020-11-11 01:00:00 3.9 7 Este 12 Este 0 -- -- 96
2020-11-11 00:00:00 4.2 4 Este 11 Este 0 -- -- 96
2020-11-10 23:00:00 4.3 3 Este 10 Este 0 -- -- 96
2020-11-10 22:00:00 4.1 3 Sudeste 7 Este 0 -- -- 96
2020-11-10 21:00:00 4.2 2 Oeste 12 Sudoeste 0 -- -- 94
2020-11-10 20:00:00 5.5 10 Sudoeste 14 Sudoeste 0 -- -- 92
2020-11-10 19:00:00 6.5 8 Sudoeste 13 Sur 0 -- -- 89
2020-11-10 18:00:00 7.9 7 Sudoeste 20 Sur 0 -- -- 84
2020-11-10 17:00:00 10.2 14 Sudeste 19 Sudeste 0 -- -- 79
2020-11-10 16:00:00 11.5 8 Sudoeste 14 Sudoeste 0 -- -- 72
2020-11-10 15:00:00 12.2 4 Sur 14 Sur 0 -- -- 73
2020-11-10 14:00:00 10.3 5 Nordeste 8 Nordeste 0 -- -- 84
2020-11-10 13:00:00 8.8 5 Norte 10 Norte 0 -- -- 89
2020-11-10 12:00:00 6.2 0 Calma 4 Este 0 -- -- 94
2020-11-10 11:00:00 5.2 2 Este 6 Este 0 -- -- 97
2020-11-10 10:00:00 4.6 5 Este 12 Este 0 -- -- 99
2020-11-10 09:00:00 4.2 8 Este 14 Este 0 -- -- 100
2020-11-10 08:00:00 4.1 8 Este 13 Este 0 -- -- 99
2020-11-10 07:00:00 4.4 9 Este 13 Este 0 -- -- 99
2020-11-10 06:00:00 4.9 8 Este 13 Este 0 -- -- 98
2020-11-10 05:00:00 5.3 6 Este 13 Este 0 -- -- 97
2020-11-10 04:00:00 5.8 6 Este 12 Este 0 -- -- 98
2020-11-10 03:00:00 6.1 5 Este 11 Este 0 -- -- 98
2020-11-10 02:00:00 6.2 6 Este 8 Este 0 -- -- 98
2020-11-10 01:00:00 6 3 Sur 5 Norte 0 -- -- 98
2020-11-10 00:00:00 5.8 2 Sudoeste 4 Sudoeste 0 -- -- 98
2020-11-09 23:00:00 5.6 0 Calma 5 Sudoeste 0 -- -- 97
2020-11-09 22:00:00 6 0 Calma 4 Sur 0 -- -- 96
2020-11-09 21:00:00 6 3 Sur 5 Sur 0 -- -- 96
2020-11-09 20:00:00 6.7 0 Calma 8 Sur 0 -- -- 94
2020-11-09 19:00:00 7.8 5 Sur 12 Sudoeste 0 -- -- 89
2020-11-09 18:00:00 9.4 6 Sudeste 9 Sur 0 -- -- 86
2020-11-09 17:00:00 10.3 2 Norte 9 Sudoeste 0 -- -- 85
2020-11-09 16:00:00 10.4 4 Sur 9 Sur 0 -- -- 81
2020-11-09 15:00:00 10.5 0 Calma 13 Este 0 -- -- 80
2020-11-09 14:00:00 10.8 6 Este 9 Este 0 -- -- 84
2020-11-09 13:00:00 10.2 6 Sur 10 Sudoeste 0 -- -- 79
2020-11-09 12:00:00 9.3 3 Sur 6 Sudoeste 0 -- -- 86
2020-11-09 11:00:00 9.1 2 Sudeste 8 Sudeste 0 -- -- 88
2020-11-09 10:00:00 8.5 0 Calma 9 Sudoeste 0 -- -- 92
2020-11-09 09:00:00 7.4 4 Sudoeste 6 Sur 0 -- -- 95
2020-11-09 08:00:00 7.1 4 Sudoeste 8 Sudoeste 0 -- -- 96
2020-11-09 07:00:00 7.2 3 Sur 7 Sudoeste 0 -- -- 97
2020-11-09 06:00:00 7.3 0 Calma 6 Oeste 0 -- -- 96
2020-11-09 05:00:00 7.6 0 Calma 14 Sur 0.2 -- -- 94
2020-11-09 04:00:00 7.9 2 Sudoeste 29 Sudeste 0 -- -- 89
2020-11-09 03:00:00 7.9 6 Sudeste 29 Sur 0 -- -- 92
2020-11-09 02:00:00 8 15 Sudeste 30 Sur 0 -- -- 92
2020-11-09 01:00:00 8.1 2 Sur 7 Sudeste 0.2 -- -- 97
2020-11-09 00:00:00 8.2 2 Nordeste 9 Sudeste 0.2 -- -- 97
2020-11-08 23:00:00 8.3 0 Calma 27 Sudeste 0.4 -- -- 96
2020-11-08 22:00:00 8.7 13 Sur 35 Sur 0.4 -- -- 94
2020-11-08 21:00:00 9.1 14 Sur 31 Sudeste 0.8 -- -- 93
2020-11-08 20:00:00 9 10 Sudeste 25 Sur 0.8 -- -- 95
2020-11-08 19:00:00 8.9 9 Sudeste 28 Sudeste 0 -- -- 94
2020-11-08 18:00:00 8.6 3 Sur 10 Este 0.4 -- -- 95
2020-11-08 17:00:00 9.1 6 Sudeste 29 Sudeste 0 -- -- 91
2020-11-08 16:00:00 9.9 14 Sur 32 Sur 0.6 -- -- 87
2020-11-08 15:00:00 9.3 18 Sur 35 Sudoeste 0.6 -- -- 87
2020-11-08 14:00:00 9.6 23 Sur 37 Sudoeste 1.2 -- -- 88
2020-11-08 13:00:00 8.9 13 Sur 43 Sudeste 1.8 -- -- 93
2020-11-08 12:00:00 8.6 23 Sur 37 Sur 2 -- -- 93
2020-11-08 11:00:00 8.7 24 Sur 37 Sudeste 1.8 -- -- 92
2020-11-08 10:00:00 8.7 21 Sudeste 32 Sur 0.4 -- -- 92
2020-11-08 09:00:00 9.2 9 Sudoeste 51 Sur 0 -- -- 86
2020-11-08 08:00:00 9.1 18 Sur 45 Sudoeste 0.4 -- -- 88
2020-11-08 07:00:00 8.4 13 Sudeste 39 Sur 2.8 -- -- 94
2020-11-08 06:00:00 8.4 19 Sudeste 31 Sur 1.8 -- -- 93
2020-11-08 05:00:00 8.6 8 Sudeste 34 Sur 0.8 -- -- 94
2020-11-08 04:00:00 9.1 2 Sudoeste 30 Sur 0 -- -- 88
2020-11-08 03:00:00 9 5 Sur 30 Sur 0 -- -- 92
2020-11-08 02:00:00 9.2 13 Sur 24 Sur 0 -- -- 88
2020-11-08 01:00:00 9.5 7 Sur 22 Sur 0 -- -- 85
2020-11-08 00:00:00 9.8 15 Sur 28 Sur 0 -- -- 83
2020-11-07 23:00:00 9.9 14 Sur 30 Sur 0 -- -- 81
2020-11-07 22:00:00 9.7 12 Sudeste 26 Sur 0 -- -- 84
2020-11-07 21:00:00 9.8 18 Sur 31 Sur 0 -- -- 82
2020-11-07 20:00:00 9.8 17 Sur 27 Sur 0 -- -- 81
2020-11-07 19:00:00 10 15 Sur 23 Sur 0 -- -- 80
2020-11-07 18:00:00 10.3 2 Sudoeste 13 Sur 0 -- -- 77
2020-11-07 17:00:00 10.9 9 Sudoeste 23 Sur 0 -- -- 73
2020-11-07 16:00:00 11.2 3 Sudeste 20 Sur 0 -- -- 76
2020-11-07 15:00:00 11.5 4 Sur 10 Nordeste 0 -- -- 76
2020-11-07 14:00:00 10.4 3 Nordeste 14 Sudoeste 0 -- -- 86
2020-11-07 13:00:00 10.5 10 Sudoeste 18 Sudoeste 0.2 -- -- 83
2020-11-07 12:00:00 10.5 10 Sudoeste 21 Sudoeste 0.2 -- -- 89
2020-11-07 11:00:00 10.4 2 Nordeste 8 Este 0 -- -- 92
2020-11-07 10:00:00 9.3 0 Calma 29 Sur 0.6 -- -- 96
2020-11-07 09:00:00 9.3 16 Sur 30 Sudeste 0 -- -- 93
2020-11-07 08:00:00 9.5 9 Sudeste 35 Sudoeste 0.2 -- -- 92
2020-11-07 07:00:00 9.6 21 Sur 47 Sur 0.2 -- -- 91
2020-11-07 06:00:00 10 21 Sudeste 44 Sudeste 0.4 -- -- 90
2020-11-07 05:00:00 10.3 27 Sur 52 Sudeste 1 -- -- 89
2020-11-07 04:00:00 10.3 29 Sudeste 49 Sudeste 3.2 -- -- 90
2020-11-07 03:00:00 10.3 18 Sur 48 Sudeste 0.2 -- -- 92
2020-11-07 02:00:00 9.2 19 Sur 55 Sur 1 -- -- 90
2020-11-07 01:00:00 9.2 30 Sur 49 Sur 7.2 -- -- 88
2020-11-07 00:00:00 9.7 20 Sur 36 Sur 4.8 -- -- 89
2020-11-06 23:00:00 9.9 7 Sur 38 Sur 4.2 -- -- 89
2020-11-06 22:00:00 11 17 Sudoeste 75 Sudeste 6 -- -- 84
2020-11-06 21:00:00 14 30 Sudeste 56 Sudeste 0 -- -- 75
2020-11-06 20:00:00 13.7 18 Sur 59 Sudoeste 0 -- -- 80
2020-11-06 19:00:00 14 13 Sur 39 Sudoeste 0 -- -- 78
2020-11-06 18:00:00 13.7 10 Sur 59 Sudeste 0 -- -- 78
2020-11-06 17:00:00 13.3 22 Sur 60 Sudeste 0 -- -- 78
2020-11-06 16:00:00 13.5 25 Sudeste 57 Sur 0 -- -- 75
2020-11-06 15:00:00 13.9 24 Sur 71 Sudeste 0 -- -- 70
2020-11-06 14:00:00 13.9 25 Sudeste 56 Sur 0 -- -- 68
2020-11-06 13:00:00 13.7 17 Sur 36 Sur 0 -- -- 68
2020-11-06 12:00:00 12.2 23 Sudeste 46 Sudeste 0 -- -- 75
2020-11-06 11:00:00 11.4 14 Sudoeste 51 Sur 0 -- -- 80
2020-11-06 10:00:00 10.4 24 Sur 44 Sur 0 -- -- 82
2020-11-06 09:00:00 9.8 28 Sur 57 Sur 0 -- -- 85
2020-11-06 08:00:00 9.5 22 Sur 51 Sur 0 -- -- 87
2020-11-06 07:00:00 9.6 22 Sur 48 Sur 0.6 -- -- 88
2020-11-06 06:00:00 10 19 Sur 54 Sudoeste 0.4 -- -- 87
2020-11-06 05:00:00 10.1 29 Sudeste 49 Sudeste 0 -- -- 84
2020-11-06 04:00:00 10.1 19 Sur 45 Sudeste 0 -- -- 85
2020-11-06 03:00:00 10 23 Sur 46 Sudeste 0 -- -- 85
2020-11-06 02:00:00 9.8 23 Sur 46 Sudeste 1 -- -- 86
2020-11-06 01:00:00 10 18 Sur 42 Sur 0.4 -- -- 84
2020-11-06 00:00:00 10.6 9 Sudeste 27 Este 0.2 -- -- 81
2020-11-05 23:00:00 11 17 Sudeste 45 Este 0 -- -- 77
2020-11-05 22:00:00 11.2 19 Sudeste 39 Sudeste 0 -- -- 74
2020-11-05 21:00:00 10.6 8 Este 26 Este 0 -- -- 79
2020-11-05 20:00:00 10.3 10 Este 25 Este 0 -- -- 80
2020-11-05 19:00:00 10.4 10 Sudeste 28 Sudeste 0 -- -- 77
2020-11-05 18:00:00 10.8 18 Sudeste 31 Sudeste 0 -- -- 77
2020-11-05 17:00:00 11.9 17 Sudeste 35 Sudeste 0 -- -- 69
2020-11-05 16:00:00 12.3 15 Sudeste 37 Sudeste 0 -- -- 68
2020-11-05 15:00:00 12.4 12 Sudeste 30 Este 0 -- -- 68
2020-11-05 14:00:00 12.6 19 Sudeste 34 Este 0 -- -- 67
2020-11-05 13:00:00 13.1 16 Este 36 Este 0 -- -- 67
2020-11-05 12:00:00 11.1 17 Sudeste 35 Este 0 -- -- 71
2020-11-05 11:00:00 9.8 19 Sudeste 46 Sudeste 0 -- -- 75
2020-11-05 10:00:00 8.1 26 Sudeste 42 Sudeste 0 -- -- 80
2020-11-05 09:00:00 4.9 3 Sudoeste 15 Noroeste 0 -- -- 92
2020-11-05 08:00:00 3.7 8 Noroeste 17 Noroeste 0 -- -- 92
2020-11-05 07:00:00 4.4 4 Este 14 Norte 0 -- -- 90
2020-11-05 06:00:00 5.8 3 Este 11 Sudeste 0 -- -- 86
2020-11-05 05:00:00 6.4 4 Norte 27 Sudeste 0 -- -- 82
2020-11-05 04:00:00 4.8 8 Norte 14 Norte 0 -- -- 87
2020-11-05 03:00:00 3.8 7 Noroeste 11 Noroeste 0 -- -- 87
2020-11-05 02:00:00 4.4 4 Este 13 Este 0 -- -- 83
2020-11-05 01:00:00 4.3 8 Nordeste 14 Nordeste 0 -- -- 81
2020-11-05 00:00:00 4.5 7 Nordeste 14 Nordeste 0 -- -- 78
2020-11-04 23:00:00 3.8 8 Nordeste 12 Norte 0 -- -- 81
2020-11-04 22:00:00 4 8 Este 30 Nordeste 0 -- -- 74
2020-11-04 21:00:00 4.8 20 Nordeste 42 Norte 0 -- -- 73
2020-11-04 20:00:00 4.7 24 Norte 44 Nordeste 0 -- -- 75
2020-11-04 19:00:00 4.3 31 Nordeste 47 Nordeste 0 -- -- 76
2020-11-04 18:00:00 4.9 26 Nordeste 40 Nordeste 0 -- -- 75
2020-11-04 17:00:00 6.2 19 Nordeste 41 Este 0 -- -- 72
2020-11-04 16:00:00 6.4 24 Norte 41 Norte 0 -- -- 69
2020-11-04 15:00:00 7.6 28 Nordeste 44 Norte 0 -- -- 66
2020-11-04 14:00:00 7.5 25 Norte 39 Nordeste 0 -- -- 67
2020-11-04 13:00:00 7 27 Nordeste 40 Norte 0 -- -- 66
2020-11-04 12:00:00 6.1 22 Norte 33 Norte 0 -- -- 73
2020-11-04 11:00:00 4.4 14 Norte 24 Norte 0 -- -- 81
2020-11-04 10:00:00 4.8 7 Este 13 Este 0 -- -- 82
2020-11-04 09:00:00 2.1 2 Sudeste 15 Este 0 -- -- 91
2020-11-04 08:00:00 1 3 Nordeste 17 Norte 0 -- -- 94
2020-11-04 07:00:00 1.7 11 Nordeste 25 Nordeste 0 -- -- 91
2020-11-04 06:00:00 1.4 0 Calma 19 Nordeste 0 -- -- 90
2020-11-04 05:00:00 1.7 7 Noroeste 21 Noroeste 0 -- -- 87
2020-11-04 04:00:00 1.8 4 Noroeste 20 Nordeste 0 -- -- 86
2020-11-04 03:00:00 2.2 9 Norte 24 Noroeste 0 -- -- 87
2020-11-04 02:00:00 2.3 8 Norte 26 Nordeste 0 -- -- 87
2020-11-04 01:00:00 2.3 8 Noroeste 29 Norte 0 -- -- 85
2020-11-04 00:00:00 2.4 8 Norte 24 Norte 0 -- -- 87
2020-11-03 23:00:00 2.8 12 Norte 24 Norte 0 -- -- 89
2020-11-03 22:00:00 3 12 Norte 23 Nordeste 0 -- -- 87
2020-11-03 21:00:00 3 12 Norte 24 Norte 0 -- -- 87
2020-11-03 20:00:00 3.3 13 Norte 28 Norte 0 -- -- 87
2020-11-03 19:00:00 3.6 12 Norte 31 Nordeste 0 -- -- 89
2020-11-03 18:00:00 4.4 12 Norte 34 Norte 0 -- -- 86
2020-11-03 17:00:00 5.5 24 Norte 37 Norte 0 -- -- 84
2020-11-03 16:00:00 6.8 24 Norte 34 Norte 0 -- -- 79
2020-11-03 15:00:00 7.9 26 Norte 42 Norte 0 -- -- 75
2020-11-03 14:00:00 7.2 17 Norte 40 Norte 0 -- -- 77
2020-11-03 13:00:00 8.4 26 Norte 41 Nordeste 0 -- -- 79
2020-11-03 12:00:00 8 26 Norte 41 Norte 0 -- -- 83
2020-11-03 11:00:00 7 18 Norte 31 Norte 0 -- -- 88
2020-11-03 10:00:00 6.3 15 Norte 32 Nordeste 0 -- -- 83
2020-11-03 09:00:00 5 8 Nordeste 21 Nordeste 0 -- -- 86
2020-11-03 08:00:00 4.1 13 Norte 32 Nordeste 0 -- -- 88
2020-11-03 07:00:00 4.3 15 Norte 28 Nordeste 0 -- -- 86
2020-11-03 06:00:00 4.9 8 Noroeste 30 Nordeste 0 -- -- 86
2020-11-03 05:00:00 5.7 13 Norte 38 Norte 0 -- -- 90
2020-11-03 04:00:00 6.5 25 Norte 33 Norte 0 -- -- 93
2020-11-03 03:00:00 6.7 13 Nordeste 29 Norte 0 -- -- 93
2020-11-03 02:00:00 7 17 Norte 32 Norte 0 -- -- 93
2020-11-03 01:00:00 7.7 19 Norte 33 Norte 0 -- -- 92
2020-11-03 00:00:00 8 9 Norte 33 Nordeste 0 -- -- 94
2020-11-02 23:00:00 8.4 21 Nordeste 28 Norte 0.2 -- -- 97
2020-11-02 22:00:00 8.5 14 Norte 33 Norte 0.4 -- -- 96
2020-11-02 21:00:00 8.8 21 Norte 35 Norte 1 -- -- 96
2020-11-02 20:00:00 9 6 Sudoeste 24 Norte 1 -- -- 95
2020-11-02 19:00:00 10.3 5 Noroeste 17 Norte 2 -- -- 95
2020-11-02 18:00:00 12.9 4 Oeste 15 Sudeste 0.2 -- -- 91
2020-11-02 17:00:00 13.8 4 Sur 27 Sur 0 -- -- 84
2020-11-02 16:00:00 14.2 19 Sur 29 Sur 0 -- -- 85
2020-11-02 15:00:00 15.5 14 Sudeste 21 Sudeste 0 -- -- 77
2020-11-02 14:00:00 15.9 9 Sudoeste 23 Sudoeste 0 -- -- 71
2020-11-02 13:00:00 16.6 11 Sudoeste 25 Sur 0 -- -- 68
2020-11-02 12:00:00 15.2 10 Sudoeste 21 Sudoeste 0 -- -- 72
2020-11-02 11:00:00 15.2 8 Sudeste 14 Sur 0 -- -- 77
2020-11-02 10:00:00 13.5 4 Sudeste 11 Sur 0 -- -- 86
2020-11-02 09:00:00 11.6 7 Sudoeste 12 Sudoeste 0 -- -- 93
2020-11-02 08:00:00 11.6 3 Sudoeste 6 Este 0 -- -- 93
2020-11-02 07:00:00 11.8 2 Este 9 Nordeste 0 -- -- 91
2020-11-02 06:00:00 12.1 2 Noroeste 9 Este 0 -- -- 87
2020-11-02 05:00:00 11.9 5 Norte 14 Este 0 -- -- 93
2020-11-02 04:00:00 12 7 Este 18 Este 0 -- -- 93
2020-11-02 03:00:00 12 7 Este 12 Este 0 -- -- 94
2020-11-02 02:00:00 12.1 2 Noroeste 11 Sur 0 -- -- 94
2020-11-02 01:00:00 12.2 6 Sudeste 13 Sudeste 0 -- -- 93
2020-11-02 00:00:00 12.1 0 Calma 12 Sudeste 0 -- -- 93
2020-11-01 23:00:00 11.9 2 Sudeste 8 Sudeste 0 -- -- 94
2020-11-01 22:00:00 11.9 3 Sur 9 Sudeste 0 -- -- 93
2020-11-01 21:00:00 11.8 2 Sur 19 Sudeste 0 -- -- 93
2020-11-01 20:00:00 11.8 13 Sudeste 20 Sudeste 0 -- -- 94
2020-11-01 19:00:00 11.9 16 Sur 28 Sudeste 0 -- -- 93
2020-11-01 18:00:00 12.8 17 Sur 25 Sudeste 0 -- -- 89
2020-11-01 17:00:00 14 15 Sur 22 Sudeste 0 -- -- 85
2020-11-01 16:00:00 15 6 Sur 10 Sudoeste 0 -- -- 80
2020-11-01 15:00:00 15.6 7 Sur 12 Sudoeste 0 -- -- 76
2020-11-01 14:00:00 15.4 6 Este 12 Este 0 -- -- 81
2020-11-01 13:00:00 14 3 Sur 10 Sur 0 -- -- 83
2020-11-01 12:00:00 13.5 8 Sur 12 Sudoeste 0 -- -- 86
2020-11-01 11:00:00 12.8 7 Sudoeste 13 Sudoeste 0 -- -- 87
2020-11-01 10:00:00 12 5 Sudoeste 13 Sudoeste 0 -- -- 88
2020-11-01 09:00:00 11.8 8 Sudoeste 12 Sudoeste 0 -- -- 87
2020-11-01 08:00:00 11.5 2 Sur 9 Sudoeste 0 -- -- 89
2020-11-01 07:00:00 11.8 6 Sudoeste 10 Sudeste 0 -- -- 87
2020-11-01 06:00:00 11.7 8 Sudoeste 12 Oeste 0 -- -- 88
2020-11-01 05:00:00 12.5 7 Sudoeste 14 Oeste 0 -- -- 84
2020-11-01 04:00:00 11.6 3 Oeste 10 Sudoeste 0 -- -- 88
2020-11-01 03:00:00 10.8 4 Sur 10 Sudoeste 0 -- -- 92
2020-11-01 02:00:00 11.1 5 Sudoeste 9 Sur 0 -- -- 91
2020-11-01 01:00:00 11.2 4 Sudoeste 11 Sur 0 -- -- 90
2020-11-01 00:00:00 11.3 6 Sudoeste 11 Sur 0 -- -- 89
2020-10-31 23:00:00 11.1 4 Sudoeste 8 Sur 0 -- -- 89
2020-10-31 22:00:00 10.9 6 Sur 12 Sudeste 0 -- -- 88
2020-10-31 21:00:00 10.8 9 Sudeste 15 Sudeste 0 -- -- 89
2020-10-31 20:00:00 10.7 3 Sudoeste 12 Sudoeste 0 -- -- 86
2020-10-31 19:00:00 11.7 11 Sudoeste 17 Sudoeste 0 -- -- 82
2020-10-31 18:00:00 13.6 11 Sudoeste 21 Sudoeste 0 -- -- 75
2020-10-31 17:00:00 14.4 8 Sudoeste 21 Sudoeste 0 -- -- 72
2020-10-31 16:00:00 16.4 10 Sudoeste 24 Sudoeste 0 -- -- 64
2020-10-31 15:00:00 15.9 3 Sudeste 21 Sur 0 -- -- 70
2020-10-31 14:00:00 15.4 10 Sudoeste 19 Sudeste 0 -- -- 68
2020-10-31 13:00:00 15.5 8 Sudeste 19 Sudeste 0 -- -- 75
2020-10-31 12:00:00 13.8 7 Sudeste 14 Sudeste 0 -- -- 80
2020-10-31 11:00:00 13.1 3 Sudeste 16 Sudeste 0 -- -- 81
2020-10-31 10:00:00 11.1 2 Sudoeste 9 Norte 0 -- -- 92
2020-10-31 09:00:00 8.3 6 Sudoeste 11 Sudoeste 0 -- -- 97
2020-10-31 08:00:00 7.6 0 Calma 9 Noroeste 0 -- -- 98
2020-10-31 07:00:00 7.3 0 Calma 6 Noroeste 0 -- -- 98
2020-10-31 06:00:00 7.4 2 Noroeste 8 Sudoeste 0 -- -- 98
2020-10-31 05:00:00 7.2 0 Calma 5 Sudoeste 0 -- -- 99
2020-10-31 04:00:00 6.6 2 Sur 6 Noroeste 0 -- -- 99
2020-10-31 03:00:00 5.6 2 Oeste 7 Sur 0 -- -- 99
2020-10-31 02:00:00 4.9 0 Calma 6 Sur 0 -- -- 98
2020-10-31 01:00:00 4.6 2 Sudoeste 4 Noroeste 0 -- -- 97
2020-10-31 00:00:00 5 0 Calma 4 Este 0 -- -- 96
2020-10-30 23:00:00 5.6 0 Calma 5 Sudoeste 0 -- -- 95
2020-10-30 22:00:00 6.7 0 Calma 7 Sudoeste 0 -- -- 93
2020-10-30 21:00:00 6.9 0 Calma 5 Nordeste 0 -- -- 92
2020-10-30 20:00:00 8.6 0 Calma 12 Sudoeste 0 -- -- 86
2020-10-30 19:00:00 10.2 5 Sudoeste 11 Sudeste 0 -- -- 82
2020-10-30 18:00:00 12.3 8 Sur 14 Sur 0 -- -- 74
2020-10-30 17:00:00 15.9 9 Sur 16 Sur 0 -- -- 61
2020-10-30 16:00:00 16.7 8 Sur 18 Sur 0 -- -- 57
2020-10-30 15:00:00 16.4 6 Sur 17 Sur 0 -- -- 57
2020-10-30 14:00:00 14 2 Nordeste 12 Sudoeste 0 -- -- 65
2020-10-30 13:00:00 11.5 4 Nordeste 8 Nordeste 0 -- -- 81
2020-10-30 12:00:00 8.3 4 Nordeste 9 Nordeste 0 -- -- 88
2020-10-30 11:00:00 4.6 3 Nordeste 4 Norte 0 -- -- 97
2020-10-30 10:00:00 1.9 0 Calma 5 Sur 0 -- -- 100
2020-10-30 09:00:00 0.9 2 Este 8 Este 0 -- -- 100
2020-10-30 08:00:00 0.7 2 Este 6 Este 0 -- -- 100
2020-10-30 07:00:00 1 3 Este 8 Este 0 -- -- 100
2020-10-30 06:00:00 1.4 5 Este 9 Nordeste 0 -- -- 99
2020-10-30 05:00:00 1.9 0 Calma 6 Este 0 -- -- 99
2020-10-30 04:00:00 2.4 3 Este 8 Este 0 -- -- 99
2020-10-30 03:00:00 2.6 2 Sudoeste 6 Sudoeste 0 -- -- 98
2020-10-30 02:00:00 3.4 3 Sudoeste 4 Sudoeste 0 -- -- 98
2020-10-30 01:00:00 3.4 0 Calma 4 Este 0 -- -- 97
2020-10-30 00:00:00 3.3 0 Calma 3 Nordeste 0 -- -- 97
2020-10-29 23:00:00 3.8 0 Calma 4 Noroeste 0 -- -- 95
2020-10-29 22:00:00 5 0 Calma 4 Noroeste 0 -- -- 94
2020-10-29 21:00:00 6.1 0 Calma 3 Sur 0 -- -- 93
2020-10-29 20:00:00 7.7 0 Calma 5 Sudoeste 0 -- -- 88
2020-10-29 19:00:00 10.2 3 Sudoeste 14 Sudoeste 0 -- -- 79
2020-10-29 18:00:00 12.8 8 Sudoeste 13 Sudoeste 0 -- -- 72
2020-10-29 17:00:00 16.2 8 Sur 14 Sur 0 -- -- 63
2020-10-29 16:00:00 16.2 3 Sudeste 8 Sudeste 0 -- -- 64
2020-10-29 15:00:00 15.4 5 Nordeste 8 Nordeste 0 -- -- 65
2020-10-29 14:00:00 13.6 4 Nordeste 6 Nordeste 0 -- -- 70
2020-10-29 13:00:00 11.3 5 Nordeste 7 Norte 0 -- -- 77
2020-10-29 12:00:00 8.3 4 Nordeste 6 Norte 0 -- -- 91
2020-10-29 11:00:00 5.3 4 Nordeste 7 Norte 0 -- -- 99
2020-10-29 10:00:00 3.4 0 Calma 7 Este 0 -- -- 100
2020-10-29 09:00:00 2.8 4 Sudeste 12 Este 0 -- -- 100
2020-10-29 08:00:00 2.7 4 Sur 8 Este 0 -- -- 100
2020-10-29 07:00:00 2.2 0 Calma 10 Este 0 -- -- 99
2020-10-29 06:00:00 3.2 3 Este 9 Sudeste 0 -- -- 99
2020-10-29 05:00:00 3.6 5 Sudeste 10 Este 0 -- -- 99
2020-10-29 04:00:00 4.2 2 Este 7 Sudeste 0 -- -- 99
2020-10-29 03:00:00 4.1 5 Sur 8 Sudeste 0 -- -- 99
2020-10-29 02:00:00 3.9 0 Calma 4 Sur 0 -- -- 98
2020-10-29 01:00:00 3.5 0 Calma 4 Norte 0 -- -- 97
2020-10-29 00:00:00 4 0 Calma 4 Noroeste 0 -- -- 97
2020-10-28 23:00:00 4.4 0 Calma 6 Noroeste 0 -- -- 95
2020-10-28 22:00:00 5.5 0 Calma 3 Sudoeste 0 -- -- 94
2020-10-28 21:00:00 6.4 0 Calma 5 Nordeste 0 -- -- 91
2020-10-28 20:00:00 7.2 0 Calma 5 Noroeste 0 -- -- 86
2020-10-28 19:00:00 9 0 Calma 11 Sur 0 -- -- 79
2020-10-28 18:00:00 11 4 Sudoeste 13 Sur 0 -- -- 72
2020-10-28 17:00:00 12.6 8 Sudoeste 15 Sudoeste 0 -- -- 67
2020-10-28 16:00:00 14.2 6 Oeste 23 Sudoeste 0 -- -- 62
2020-10-28 15:00:00 14 9 Sudoeste 23 Sudoeste 0 -- -- 62
2020-10-28 14:00:00 14 5 Este 15 Sur 0 -- -- 65
2020-10-28 13:00:00 13.4 8 Sur 18 Sur 0 -- -- 67
2020-10-28 12:00:00 12 6 Sudoeste 15 Sudoeste 0 -- -- 72
2020-10-28 11:00:00 10.8 10 Sur 15 Sur 0 -- -- 81
2020-10-28 10:00:00 9.7 8 Sur 12 Sudoeste 0 -- -- 87
2020-10-28 09:00:00 7.3 0 Calma 8 Sudoeste 0 -- -- 97
2020-10-28 08:00:00 6.7 4 Sur 8 Sudoeste 0 -- -- 97
2020-10-28 07:00:00 7.8 3 Sudoeste 9 Oeste 0 -- -- 96
2020-10-28 06:00:00 8.6 5 Sudoeste 8 Sudoeste 0 -- -- 95
2020-10-28 05:00:00 8.6 3 Sur 6 Sudoeste 0 -- -- 96
2020-10-28 04:00:00 8.4 0 Calma 6 Sudoeste 0.2 -- -- 97
2020-10-28 03:00:00 8.5 0 Calma 8 Sudoeste 0 -- -- 96
2020-10-28 02:00:00 8.4 0 Calma 7 Este 0 -- -- 96
2020-10-28 01:00:00 8.4 3 Sur 7 Este 0 -- -- 96
2020-10-28 00:00:00 8.4 0 Calma 4 Sudoeste 0 -- -- 97